Time;durP1;ratioP1;P1;durP2;ratioP2;P2;SDS_P1;SDS_P2;PMS_P1;PMS_P2;Temp;Humidity;BMP_temperature;BMP_pressure;BME280_temperature;BME280_humidity;BME280_pressure;Samples;Min_cycle;Max_cycle;Signal;HPM_P1;HPM_P2
2021/05/30 00:02:19;;;;;;;3.47;2.08;;;20.20;46.80;;;;;;5095878;28;20024;-61
2021/05/30 00:04:45;;;;;;;3.90;1.95;;;20.30;46.80;;;;;;5095399;28;20027;-61
2021/05/30 00:07:11;;;;;;;4.38;2.20;;;20.30;46.90;;;;;;5095425;28;20379;-62
2021/05/30 00:09:40;;;;;;;3.40;1.63;;;20.30;46.90;;;;;;5095178;28;20035;-62
2021/05/30 00:12:07;;;;;;;3.47;1.80;;;20.20;46.90;;;;;;5095049;28;20028;-61
2021/05/30 00:14:33;;;;;;;3.47;1.77;;;20.20;46.90;;;;;;5094936;28;20031;-62
2021/05/30 00:16:59;;;;;;;4.20;2.00;;;20.20;46.90;;;;;;5094740;28;20034;-61
2021/05/30 00:19:24;;;;;;;4.18;1.95;;;20.20;46.90;;;;;;5094779;28;20024;-61
2021/05/30 00:21:50;;;;;;;3.00;1.50;;;20.20;47.00;;;;;;5093338;28;20028;-61
2021/05/30 00:24:15;;;;;;;3.58;1.77;;;20.20;47.00;;;;;;5094111;28;20039;-62
2021/05/30 00:26:41;;;;;;;4.05;1.77;;;20.20;47.00;;;;;;5093155;28;20111;-61
2021/05/30 00:29:07;;;;;;;3.70;1.75;;;20.10;47.00;;;;;;5094297;28;20028;-62
2021/05/30 00:31:32;;;;;;;3.50;1.95;;;20.20;47.00;;;;;;5094194;28;20036;-61
2021/05/30 00:33:58;;;;;;;3.25;1.77;;;20.10;47.00;;;;;;5094470;28;20051;-62
2021/05/30 00:36:23;;;;;;;4.95;1.90;;;20.10;47.00;;;;;;5093992;28;20447;-62
2021/05/30 00:38:49;;;;;;;3.50;1.92;;;20.10;47.00;;;;;;5094252;28;20460;-61
2021/05/30 00:41:15;;;;;;;3.53;1.70;;;20.10;47.10;;;;;;5094378;28;20028;-62
2021/05/30 00:43:49;;;;;;;3.10;1.70;;;20.10;47.10;;;;;;5094354;28;20030;-62
2021/05/30 00:46:14;;;;;;;2.92;1.80;;;20.00;47.10;;;;;;5094037;28;20024;-62
2021/05/30 00:48:41;;;;;;;4.75;1.90;;;20.00;47.10;;;;;;5094201;28;20157;-62
2021/05/30 00:51:07;;;;;;;3.45;1.70;;;20.00;47.10;;;;;;5094232;28;20042;-61
2021/05/30 00:53:34;;;;;;;3.97;2.10;;;20.00;47.10;;;;;;5094143;28;20074;-62
2021/05/30 00:56:05;;;;;;;4.70;2.17;;;20.00;47.10;;;;;;5094027;28;20047;-61
2021/05/30 00:58:31;;;;;;;2.92;1.80;;;20.00;47.20;;;;;;5093961;28;20032;-62
2021/05/30 01:00:57;;;;;;;3.75;1.85;;;20.00;47.10;;;;;;5093593;28;20104;-62
2021/05/30 01:03:23;;;;;;;4.70;1.80;;;20.00;47.10;;;;;;5093913;28;20528;-61
2021/05/30 01:05:48;;;;;;;3.60;2.00;;;20.00;47.30;;;;;;5093836;28;20533;-61
2021/05/30 01:08:25;;;;;;;3.85;2.15;;;20.00;47.20;;;;;;5093839;28;20016;-62
2021/05/30 01:10:53;;;;;;;3.47;2.10;;;20.00;47.20;;;;;;5093906;28;20035;-61
2021/05/30 01:13:20;;;;;;;4.97;2.30;;;19.90;47.20;;;;;;5094021;28;20035;-62
2021/05/30 01:15:47;;;;;;;2.97;1.70;;;19.90;47.30;;;;;;5094158;28;20024;-62
2021/05/30 01:18:16;;;;;;;4.43;1.92;;;19.90;47.30;;;;;;5093912;28;20016;-62
2021/05/30 01:20:42;;;;;;;3.13;1.75;;;19.90;47.20;;;;;;5093768;28;20058;-62
2021/05/30 01:23:11;;;;;;;4.05;2.10;;;19.90;47.30;;;;;;5093482;28;20044;-62
2021/05/30 01:25:36;;;;;;;4.28;2.38;;;19.90;47.30;;;;;;5093637;28;20035;-62
2021/05/30 01:28:04;;;;;;;4.90;2.55;;;19.80;47.20;;;;;;5093852;28;20081;-62
2021/05/30 01:30:30;;;;;;;4.25;2.00;;;19.80;47.30;;;;;;5092332;28;20043;-62
2021/05/30 01:32:55;;;;;;;3.25;1.92;;;19.80;47.30;;;;;;5093717;28;20372;-62
2021/05/30 01:35:21;;;;;;;4.72;2.20;;;19.80;47.40;;;;;;5093341;28;20387;-62
2021/05/30 01:37:48;;;;;;;4.22;2.08;;;19.80;47.40;;;;;;5094156;28;20024;-62
2021/05/30 01:40:14;;;;;;;4.22;2.00;;;19.80;47.40;;;;;;5093743;28;20024;-62
2021/05/30 01:42:40;;;;;;;3.17;1.85;;;19.70;47.40;;;;;;5097427;28;20043;-62
2021/05/30 01:45:07;;;;;;;5.57;2.22;;;19.70;47.50;;;;;;5094089;28;20028;-61
2021/05/30 01:47:38;;;;;;;4.60;2.13;;;19.70;47.40;;;;;;5093509;28;20023;-62
2021/05/30 01:50:05;;;;;;;5.00;2.30;;;19.70;47.50;;;;;;5093624;28;20036;-62
2021/05/30 01:52:31;;;;;;;4.82;2.13;;;19.70;47.60;;;;;;5093311;28;20032;-61
2021/05/30 01:54:56;;;;;;;3.05;1.80;;;19.60;47.60;;;;;;5093286;28;20533;-62
2021/05/30 01:57:22;;;;;;;3.70;1.90;;;19.70;47.50;;;;;;5093242;28;20379;-62
2021/05/30 01:59:48;;;;;;;3.28;2.10;;;19.70;47.50;;;;;;5093055;28;20031;-62
2021/05/30 02:02:13;;;;;;;3.97;2.20;;;19.60;47.80;;;;;;5093266;28;20053;-62
2021/05/30 02:04:43;;;;;;;4.00;1.90;;;19.60;47.50;;;;;;5092866;28;20077;-62
2021/05/30 02:07:09;;;;;;;3.97;2.13;;;19.60;47.50;;;;;;5092909;28;20467;-62
2021/05/30 02:09:37;;;;;;;4.43;2.17;;;19.60;47.70;;;;;;5093001;28;20468;-62
2021/05/30 02:12:04;;;;;;;3.75;2.00;;;19.60;47.60;;;;;;5093287;28;20517;-62
2021/05/30 02:14:30;;;;;;;3.42;1.88;;;19.60;47.80;;;;;;5093145;28;20024;-62
2021/05/30 02:16:56;;;;;;;4.38;2.08;;;19.50;47.70;;;;;;5093236;28;20035;-61
2021/05/30 02:19:21;;;;;;;3.35;1.88;;;19.50;47.80;;;;;;5092921;28;20099;-62
2021/05/30 02:21:49;;;;;;;4.57;1.88;;;19.60;47.70;;;;;;5093073;28;20385;-62
2021/05/30 02:24:16;;;;;;;4.20;2.20;;;19.60;47.70;;;;;;5091398;28;20040;-62
2021/05/30 02:26:42;;;;;;;3.05;1.90;;;19.60;47.70;;;;;;5092877;28;20052;-62
2021/05/30 02:29:09;;;;;;;4.10;2.08;;;19.50;47.70;;;;;;5093105;28;20352;-61
2021/05/30 02:31:34;;;;;;;4.78;2.08;;;19.50;47.70;;;;;;5092496;28;20039;-62
2021/05/30 02:34:00;;;;;;;4.30;1.95;;;19.50;47.80;;;;;;5092506;28;20028;-62
2021/05/30 02:36:27;;;;;;;4.72;2.40;;;19.50;47.70;;;;;;5092686;28;20554;-62
2021/05/30 02:38:53;;;;;;;4.57;2.35;;;19.50;47.80;;;;;;5093571;28;20032;-62
2021/05/30 02:41:19;;;;;;;4.25;2.40;;;19.50;47.80;;;;;;5093573;28;20031;-62
2021/05/30 02:43:48;;;;;;;4.05;2.13;;;19.50;47.80;;;;;;5093052;28;20032;-62
2021/05/30 02:46:13;;;;;;;2.92;1.77;;;19.50;47.80;;;;;;5093725;28;20040;-61
2021/05/30 02:48:39;;;;;;;4.65;2.20;;;19.50;47.80;;;;;;5096670;28;20463;-62
2021/05/30 02:51:05;;;;;;;3.33;2.13;;;19.50;47.80;;;;;;5095412;28;20067;-61
2021/05/30 02:53:32;;;;;;;5.85;2.38;;;19.50;47.80;;;;;;5096892;28;20021;-62
2021/05/30 02:55:58;;;;;;;3.72;1.80;;;19.50;47.80;;;;;;5096779;28;20024;-61
2021/05/30 02:58:26;;;;;;;5.18;2.40;;;19.50;47.80;;;;;;5096592;28;20031;-61
2021/05/30 03:00:51;;;;;;;4.28;2.08;;;19.40;47.80;;;;;;5096644;28;20205;-61
2021/05/30 03:03:17;;;;;;;4.07;2.10;;;19.40;47.80;;;;;;5096838;28;20020;-61
2021/05/30 03:05:42;;;;;;;4.38;2.28;;;19.40;47.80;;;;;;5095964;28;20032;-62
2021/05/30 03:08:08;;;;;;;4.40;2.05;;;19.40;47.80;;;;;;5096688;28;20036;-61
2021/05/30 03:10:34;;;;;;;3.80;1.98;;;19.40;47.90;;;;;;5096459;28;20081;-62
2021/05/30 03:12:59;;;;;;;3.92;2.17;;;19.40;47.90;;;;;;5096634;28;20028;-62
2021/05/30 03:15:26;;;;;;;4.18;2.28;;;19.30;47.90;;;;;;5096566;28;20020;-61
2021/05/30 03:17:52;;;;;;;4.43;2.10;;;19.30;47.90;;;;;;5096307;28;20158;-62
2021/05/30 03:20:19;;;;;;;4.30;2.20;;;19.30;47.90;;;;;;5096516;28;20031;-62
2021/05/30 03:22:44;;;;;;;4.55;2.30;;;19.30;47.90;;;;;;5096029;28;20051;-62
2021/05/30 03:25:11;;;;;;;4.32;2.50;;;19.30;48.00;;;;;;5095734;28;20471;-62
2021/05/30 03:27:36;;;;;;;4.50;2.40;;;19.30;47.90;;;;;;5096051;28;20028;-62
2021/05/30 03:30:03;;;;;;;5.20;2.53;;;19.30;47.90;;;;;;5095808;28;20111;-62
2021/05/30 03:32:29;;;;;;;3.95;2.13;;;19.30;48.00;;;;;;5095727;28;20052;-61
2021/05/30 03:34:54;;;;;;;4.15;2.20;;;19.20;48.00;;;;;;5095716;28;20024;-62
2021/05/30 03:37:20;;;;;;;3.97;2.17;;;19.20;48.00;;;;;;5095659;28;20016;-62
2021/05/30 03:39:46;;;;;;;4.03;2.13;;;19.20;48.00;;;;;;5095549;28;20024;-61
2021/05/30 03:42:18;;;;;;;5.47;2.70;;;19.20;48.00;;;;;;5095899;28;20114;-62
2021/05/30 03:44:43;;;;;;;5.03;2.42;;;19.20;48.00;;;;;;5095268;28;20502;-61
2021/05/30 03:47:12;;;;;;;5.75;2.50;;;19.20;48.00;;;;;;5095188;28;20115;-62
2021/05/30 03:49:38;;;;;;;4.53;2.53;;;19.20;48.10;;;;;;5093789;28;20032;-62
2021/05/30 03:52:04;;;;;;;4.70;2.47;;;19.20;48.00;;;;;;5095040;28;20403;-61
2021/05/30 03:54:29;;;;;;;4.63;2.55;;;19.20;48.00;;;;;;5095518;28;20059;-62
2021/05/30 03:56:55;;;;;;;4.00;2.17;;;19.10;48.10;;;;;;5095610;28;20111;-62
2021/05/30 03:59:21;;;;;;;3.88;2.35;;;19.20;48.10;;;;;;5094759;28;20526;-61
2021/05/30 04:01:46;;;;;;;4.45;2.50;;;19.10;48.10;;;;;;5095607;28;20038;-62
2021/05/30 04:04:12;;;;;;;4.20;2.42;;;19.10;48.20;;;;;;5095155;28;20077;-61
2021/05/30 04:06:37;;;;;;;4.90;2.88;;;19.10;48.20;;;;;;5095452;28;20368;-61
2021/05/30 04:09:03;;;;;;;5.00;2.53;;;19.10;48.20;;;;;;5095064;28;20028;-61
2021/05/30 04:11:29;;;;;;;4.45;2.47;;;19.10;48.20;;;;;;5095227;28;20032;-61
2021/05/30 04:13:54;;;;;;;4.40;2.25;;;19.10;48.20;;;;;;5095048;28;20137;-61
2021/05/30 04:16:20;;;;;;;4.63;2.15;;;19.00;48.10;;;;;;5094831;28;20020;-62
2021/05/30 04:18:45;;;;;;;4.85;2.50;;;19.10;48.10;;;;;;5094967;28;20093;-61
2021/05/30 04:21:11;;;;;;;4.55;2.30;;;19.00;48.20;;;;;;5095299;28;20032;-61
2021/05/30 04:23:36;;;;;;;10.73;2.50;;;19.00;48.10;;;;;;5094966;28;20040;-61
2021/05/30 04:26:02;;;;;;;4.05;2.17;;;19.00;48.20;;;;;;5094901;28;20027;-62
2021/05/30 04:28:27;;;;;;;4.03;2.17;;;19.00;48.20;;;;;;5094814;28;20024;-62
2021/05/30 04:30:53;;;;;;;4.32;2.33;;;19.00;48.20;;;;;;5076445;28;20043;-62
2021/05/30 04:33:18;;;;;;;4.70;2.55;;;19.00;48.20;;;;;;5094649;28;20024;-63
2021/05/30 04:35:44;;;;;;;5.80;2.60;;;19.00;48.20;;;;;;5094782;28;20020;-61
2021/05/30 04:38:10;;;;;;;4.20;2.13;;;19.00;48.20;;;;;;5094209;28;20020;-62
2021/05/30 04:40:35;;;;;;;4.65;2.67;;;19.00;48.20;;;;;;5094716;28;20153;-61
2021/05/30 04:43:01;;;;;;;5.80;2.33;;;19.00;48.20;;;;;;5094637;28;20028;-61
2021/05/30 04:45:26;;;;;;;4.35;2.33;;;19.00;48.20;;;;;;5092993;28;20023;-62
2021/05/30 04:47:52;;;;;;;3.97;1.95;;;19.00;48.20;;;;;;5094758;28;20020;-62
2021/05/30 04:50:17;;;;;;;4.18;2.50;;;18.90;48.30;;;;;;5094853;28;20035;-62
2021/05/30 04:52:43;;;;;;;6.32;2.45;;;18.90;48.20;;;;;;5094699;28;20480;-61
2021/05/30 04:55:11;;;;;;;5.25;2.85;;;18.90;48.20;;;;;;5094089;28;20085;-62
2021/05/30 04:57:41;;;;;;;4.13;2.60;;;18.90;48.20;;;;;;5094217;28;20036;-62
2021/05/30 05:00:09;;;;;;;5.35;2.45;;;18.90;48.20;;;;;;5094412;28;20051;-62
2021/05/30 05:02:35;;;;;;;4.18;2.42;;;18.90;48.30;;;;;;5095126;28;20024;-62
2021/05/30 05:05:01;;;;;;;5.15;2.40;;;18.90;48.30;;;;;;5099097;28;20024;-62
2021/05/30 05:07:27;;;;;;;3.42;2.10;;;18.90;48.20;;;;;;5104757;28;20032;-62
2021/05/30 05:09:52;;;;;;;6.55;2.55;;;18.90;48.20;;;;;;5105059;28;20020;-65
2021/05/30 05:12:18;;;;;;;4.07;2.33;;;18.90;48.10;;;;;;5104994;28;20028;-69
2021/05/30 05:14:43;;;;;;;4.13;2.17;;;19.00;48.20;;;;;;5106646;28;20012;-62
2021/05/30 05:17:09;;;;;;;3.78;2.28;;;18.90;48.10;;;;;;5104200;28;20036;-61
2021/05/30 05:19:35;;;;;;;4.75;2.70;;;18.90;48.10;;;;;;5103979;28;20119;-62
2021/05/30 05:22:00;;;;;;;4.88;2.67;;;18.90;48.10;;;;;;5104468;28;20046;-63
2021/05/30 05:24:26;;;;;;;4.63;2.50;;;18.90;48.10;;;;;;5096109;28;20040;-62
2021/05/30 05:26:51;;;;;;;4.65;2.40;;;19.00;48.10;;;;;;5094318;28;20034;-62
2021/05/30 05:29:17;;;;;;;5.18;2.67;;;18.90;48.10;;;;;;5093940;28;20020;-62
2021/05/30 05:31:42;;;;;;;4.97;2.30;;;18.90;48.10;;;;;;5093765;28;20068;-63
2021/05/30 05:34:08;;;;;;;3.90;2.28;;;18.90;48.10;;;;;;5093977;28;20048;-63
2021/05/30 05:36:34;;;;;;;4.90;2.65;;;18.90;48.20;;;;;;5094121;28;20031;-62
2021/05/30 05:38:59;;;;;;;4.55;2.25;;;18.90;48.10;;;;;;5093658;28;20025;-62
2021/05/30 05:41:25;;;;;;;5.13;2.67;;;18.90;48.00;;;;;;5093962;28;20030;-62
2021/05/30 05:43:50;;;;;;;4.63;2.42;;;18.90;48.10;;;;;;5093554;28;20029;-61
2021/05/30 05:46:16;;;;;;;5.00;2.40;;;18.90;48.10;;;;;;5093817;28;20027;-62
2021/05/30 05:48:41;;;;;;;4.25;2.40;;;18.90;48.10;;;;;;5093565;28;20028;-61
2021/05/30 05:51:07;;;;;;;3.92;2.22;;;19.00;48.10;;;;;;5093339;28;20120;-62
2021/05/30 05:53:32;;;;;;;4.63;2.45;;;18.90;48.10;;;;;;5093180;28;20480;-62
2021/05/30 05:55:58;;;;;;;4.55;2.22;;;18.90;48.10;;;;;;5093537;28;20315;-61
2021/05/30 05:58:24;;;;;;;5.47;3.17;;;18.90;48.10;;;;;;5093484;28;20060;-62
2021/05/30 06:00:49;;;;;;;4.60;2.42;;;19.00;48.10;;;;;;5093652;28;20388;-62
2021/05/30 06:03:15;;;;;;;4.47;2.33;;;18.90;48.10;;;;;;5093516;28;20027;-62
2021/05/30 06:05:40;;;;;;;3.92;2.47;;;19.00;48.10;;;;;;5093606;28;20451;-62
2021/05/30 06:08:06;;;;;;;4.90;2.67;;;19.00;48.00;;;;;;5093580;28;20066;-62
2021/05/30 06:10:32;;;;;;;5.05;2.53;;;19.00;48.00;;;;;;5093344;28;20028;-62
2021/05/30 06:13:01;;;;;;;4.90;2.70;;;19.00;48.00;;;;;;5092998;28;20020;-62
2021/05/30 06:15:27;;;;;;;5.30;2.55;;;19.00;48.00;;;;;;5093583;28;20039;-61
2021/05/30 06:17:59;;;;;;;4.13;2.33;;;19.00;48.00;;;;;;5093587;28;20020;-62
2021/05/30 06:20:26;;;;;;;4.47;2.53;;;19.00;48.00;;;;;;5093208;28;20471;-62
2021/05/30 06:22:55;;;;;;;4.95;2.20;;;19.00;48.00;;;;;;5095902;28;20082;-61
2021/05/30 06:25:21;;;;;;;5.70;2.78;;;19.00;47.90;;;;;;5097298;28;20023;-61
2021/05/30 06:27:47;;;;;;;4.28;2.45;;;19.10;47.80;;;;;;5097267;28;20032;-62
2021/05/30 06:30:14;;;;;;;4.40;2.25;;;19.10;47.70;;;;;;5097555;28;20039;-62
2021/05/30 06:32:39;;;;;;;5.68;2.45;;;19.10;47.70;;;;;;5097511;28;20036;-62
2021/05/30 06:35:06;;;;;;;5.80;2.63;;;19.10;47.70;;;;;;5096865;28;20415;-62
2021/05/30 06:37:32;;;;;;;5.40;2.58;;;19.10;47.60;;;;;;5096807;28;20020;-62
2021/05/30 06:39:57;;;;;;;3.60;2.22;;;19.10;47.60;;;;;;5096987;28;20025;-62
2021/05/30 06:42:23;;;;;;;4.15;2.38;;;19.10;47.50;;;;;;5096941;28;20538;-62
2021/05/30 06:44:49;;;;;;;5.55;2.58;;;19.20;47.50;;;;;;5096834;28;20024;-62
2021/05/30 06:47:15;;;;;;;3.88;2.30;;;19.20;47.50;;;;;;5096478;28;20038;-62
2021/05/30 06:49:40;;;;;;;4.63;2.85;;;19.20;47.40;;;;;;5096730;28;20020;-62
2021/05/30 06:52:06;;;;;;;4.68;2.53;;;19.20;47.40;;;;;;5096320;28;20044;-62
2021/05/30 06:54:32;;;;;;;4.97;2.40;;;19.20;47.40;;;;;;5096363;28;20353;-62
2021/05/30 06:56:57;;;;;;;4.25;2.53;;;19.20;47.40;;;;;;5096843;28;20024;-62
2021/05/30 06:59:23;;;;;;;5.13;2.38;;;19.20;47.40;;;;;;5096523;28;20036;-62
2021/05/30 07:01:48;;;;;;;4.18;2.28;;;19.20;47.40;;;;;;5096271;28;20070;-62
2021/05/30 07:04:14;;;;;;;4.13;2.20;;;19.30;47.40;;;;;;5096462;28;20069;-62
2021/05/30 07:06:40;;;;;;;4.07;2.25;;;19.30;47.30;;;;;;5096271;28;20023;-62
2021/05/30 07:09:06;;;;;;;4.95;2.42;;;19.30;47.30;;;;;;5096290;28;20095;-62
2021/05/30 07:11:33;;;;;;;4.80;2.58;;;19.30;47.20;;;;;;5095877;28;20024;-62
2021/05/30 07:13:59;;;;;;;5.93;2.63;;;19.30;47.20;;;;;;5096469;28;20030;-62
2021/05/30 07:16:25;;;;;;;5.43;2.60;;;19.30;47.20;;;;;;5096068;28;20015;-62
2021/05/30 07:18:50;;;;;;;4.88;2.53;;;19.40;47.30;;;;;;5096216;28;20452;-62
2021/05/30 07:21:16;;;;;;;4.90;2.42;;;19.40;47.20;;;;;;5095890;28;20383;-61
2021/05/30 07:23:42;;;;;;;5.68;2.45;;;19.40;47.20;;;;;;5095689;28;20044;-62
2021/05/30 07:26:07;;;;;;;3.95;2.20;;;19.30;47.10;;;;;;5096031;28;20035;-62
2021/05/30 07:28:33;;;;;;;4.32;2.45;;;19.40;47.10;;;;;;5095855;28;20028;-62
2021/05/30 07:30:59;;;;;;;4.75;2.55;;;19.40;47.10;;;;;;5095638;28;20050;-62
2021/05/30 07:33:24;;;;;;;4.75;2.58;;;19.40;47.10;;;;;;5094567;28;20303;-62
2021/05/30 07:35:50;;;;;;;4.32;2.22;;;19.40;47.10;;;;;;5094529;28;20067;-62
2021/05/30 07:38:16;;;;;;;5.18;2.47;;;19.50;47.10;;;;;;5095767;28;20020;-62
2021/05/30 07:40:42;;;;;;;5.55;2.33;;;19.50;47.00;;;;;;5095978;28;20024;-62
2021/05/30 07:43:08;;;;;;;5.20;2.75;;;19.50;47.10;;;;;;5095654;28;20392;-62
2021/05/30 07:45:34;;;;;;;5.85;2.40;;;19.50;47.10;;;;;;5094269;28;20050;-62
2021/05/30 07:48:00;;;;;;;3.35;2.00;;;19.50;47.10;;;;;;5095619;28;20387;-62
2021/05/30 07:50:26;;;;;;;4.78;2.50;;;19.50;47.10;;;;;;5095178;28;20509;-62
2021/05/30 07:52:52;;;;;;;6.63;2.80;;;19.50;47.00;;;;;;5095312;28;20091;-62
2021/05/30 07:55:20;;;;;;;4.88;2.42;;;19.50;47.10;;;;;;5095699;28;20028;-62
2021/05/30 07:57:46;;;;;;;4.38;2.30;;;19.50;47.00;;;;;;5095706;28;20041;-62
2021/05/30 08:00:16;;;;;;;5.13;2.42;;;19.50;47.00;;;;;;5095523;28;20031;-62
2021/05/30 08:02:42;;;;;;;4.53;2.33;;;19.50;47.10;;;;;;5095384;28;20024;-62
2021/05/30 08:05:10;;;;;;;3.85;2.38;;;19.50;47.00;;;;;;5095365;28;20025;-62
2021/05/30 08:07:36;;;;;;;3.45;2.10;;;19.50;47.00;;;;;;5095325;28;20048;-62
2021/05/30 08:10:04;;;;;;;4.93;2.67;;;19.50;47.00;;;;;;5094919;28;20440;-62
2021/05/30 08:12:29;;;;;;;4.28;2.42;;;19.50;47.00;;;;;;5095086;28;20455;-62
2021/05/30 08:14:55;;;;;;;3.97;2.13;;;19.50;47.00;;;;;;5095238;28;20029;-61
2021/05/30 08:17:20;;;;;;;4.05;2.22;;;19.50;47.00;;;;;;5094970;28;20123;-62
2021/05/30 08:19:46;;;;;;;5.15;2.38;;;19.50;47.00;;;;;;5095035;28;20050;-61
2021/05/30 08:22:12;;;;;;;4.88;2.47;;;19.50;47.00;;;;;;5094792;28;20032;-62
2021/05/30 08:24:37;;;;;;;4.97;2.47;;;19.50;47.00;;;;;;5094910;28;20024;-62
2021/05/30 08:27:03;;;;;;;4.10;2.30;;;19.50;47.00;;;;;;5094748;28;20032;-62
2021/05/30 08:29:29;;;;;;;5.18;2.15;;;19.50;47.00;;;;;;5094638;28;20430;-62
2021/05/30 08:31:55;;;;;;;4.70;2.15;;;19.50;47.00;;;;;;5094505;28;20110;-62
2021/05/30 08:34:21;;;;;;;4.28;2.35;;;19.50;47.00;;;;;;5094775;28;20028;-62
2021/05/30 08:36:47;;;;;;;4.18;2.47;;;19.50;47.00;;;;;;5094572;28;20472;-62
2021/05/30 08:39:13;;;;;;;4.97;2.47;;;19.50;46.90;;;;;;5095071;28;20024;-62
2021/05/30 08:41:40;;;;;;;4.63;2.42;;;19.50;47.00;;;;;;5094685;28;20035;-62
2021/05/30 08:44:06;;;;;;;4.30;2.30;;;19.60;47.00;;;;;;5094403;28;20032;-62
2021/05/30 08:46:32;;;;;;;4.80;2.50;;;19.60;47.00;;;;;;5094205;28;20020;-62
2021/05/30 08:48:59;;;;;;;4.15;2.33;;;19.50;47.00;;;;;;5094037;28;20097;-62
2021/05/30 08:51:25;;;;;;;4.72;2.30;;;19.50;47.00;;;;;;5094132;28;20028;-62
2021/05/30 08:53:51;;;;;;;4.25;2.38;;;19.60;47.00;;;;;;5094428;28;20024;-62
2021/05/30 08:56:17;;;;;;;3.88;2.30;;;19.60;46.90;;;;;;5094921;28;20028;-61
2021/05/30 08:58:44;;;;;;;4.03;2.05;;;19.60;47.00;;;;;;5094406;28;20023;-62
2021/05/30 09:01:13;;;;;;;4.10;2.38;;;19.60;47.00;;;;;;5094191;28;20085;-62
2021/05/30 09:04:08;;;;;;;4.97;2.20;;;19.60;47.00;;;;;;5093916;28;20048;-62
2021/05/30 09:06:36;;;;;;;4.75;2.30;;;19.50;47.00;;;;;;5093888;28;20026;-62
2021/05/30 09:09:04;;;;;;;3.97;2.45;;;19.60;46.90;;;;;;5092666;28;20078;-62
2021/05/30 09:11:41;;;;;;;4.50;2.33;;;19.60;46.90;;;;;;5093892;28;20122;-62
2021/05/30 09:14:24;;;;;;;4.68;2.60;;;19.60;46.90;;;;;;5094102;28;20073;-62
2021/05/30 09:16:59;;;;;;;3.53;1.92;;;19.60;47.00;;;;;;5094138;28;20089;-62
2021/05/30 09:19:42;;;;;;;3.80;1.90;;;19.60;46.90;;;;;;5094091;28;20024;-62
2021/05/30 09:22:17;;;;;;;4.10;2.40;;;19.60;46.90;;;;;;5093545;28;20030;-62
2021/05/30 09:24:58;;;;;;;3.90;2.20;;;19.60;46.90;;;;;;5093788;28;20051;-62
2021/05/30 09:27:25;;;;;;;4.78;2.50;;;19.60;46.90;;;;;;5093514;28;20510;-62
2021/05/30 09:30:39;;;;;;;3.97;2.20;;;19.60;46.90;;;;;;5093590;28;20040;-62
2021/05/30 09:33:22;;;;;;;3.83;1.77;;;19.60;46.90;;;;;;5091373;28;20077;-61
2021/05/30 09:35:52;;;;;;;4.25;2.22;;;19.60;46.80;;;;;;5093253;28;20387;-62
2021/05/30 09:38:29;;;;;;;4.30;2.42;;;19.60;46.80;;;;;;5092860;28;20035;-62
2021/05/30 09:41:01;;;;;;;4.40;2.15;;;19.60;46.80;;;;;;5092863;28;20048;-62
2021/05/30 09:43:28;;;;;;;3.33;1.83;;;19.60;46.70;;;;;;5092800;28;20082;-62
2021/05/30 09:45:58;;;;;;;4.50;2.17;;;19.60;46.80;;;;;;5092677;28;20522;-62
2021/05/30 09:48:24;;;;;;;4.30;1.92;;;19.60;46.80;;;;;;5092812;28;20060;-62
2021/05/30 09:51:08;;;;;;;4.03;2.40;;;19.60;46.70;;;;;;5092619;28;20482;-62
2021/05/30 09:53:42;;;;;;;4.63;2.03;;;19.70;46.80;;;;;;5092750;28;20515;-62
2021/05/30 09:56:26;;;;;;;;;;;19.70;46.70;;;;;;5092379;28;20483;-62
2021/05/30 09:58:52;;;;;;;4.07;2.10;;;19.70;46.70;;;;;;5092795;28;19911;-62
2021/05/30 10:01:18;;;;;;;3.63;1.80;;;19.70;46.70;;;;;;5092879;28;20020;-62
2021/05/30 10:03:43;;;;;;;4.10;2.40;;;19.70;46.70;;;;;;5092557;28;20038;-62
2021/05/30 10:06:09;;;;;;;5.07;2.33;;;19.70;46.60;;;;;;5092558;28;20017;-62
2021/05/30 10:08:35;;;;;;;3.53;2.00;;;19.70;46.60;;;;;;5092514;28;20286;-62
2021/05/30 10:11:01;;;;;;;3.03;1.80;;;19.70;46.60;;;;;;5092580;28;20032;-62
2021/05/30 10:13:27;;;;;;;3.72;1.95;;;19.70;46.60;;;;;;5093174;28;20085;-62
2021/05/30 10:15:53;;;;;;;3.58;2.10;;;19.70;46.60;;;;;;5092240;28;20472;-62
2021/05/30 10:18:23;;;;;;;3.85;2.22;;;19.80;46.60;;;;;;5095781;28;20028;-62
2021/05/30 10:20:51;;;;;;;4.43;2.05;;;19.80;46.50;;;;;;5102362;28;20024;-62
2021/05/30 10:23:19;;;;;;;4.18;2.08;;;19.80;46.50;;;;;;5098119;28;20048;-62
2021/05/30 10:25:45;;;;;;;4.53;2.30;;;19.80;46.50;;;;;;5094287;28;20032;-62
2021/05/30 10:28:18;;;;;;;4.18;2.17;;;19.80;46.60;;;;;;5094016;28;20555;-63
2021/05/30 10:30:46;;;;;;;4.25;2.00;;;19.80;46.50;;;;;;5094477;28;20102;-62
2021/05/30 10:33:24;;;;;;;3.80;2.33;;;19.80;46.50;;;;;;5093566;28;20113;-62
2021/05/30 10:35:52;;;;;;;3.53;2.05;;;19.90;46.50;;;;;;5093534;28;20506;-62
2021/05/30 10:38:40;;;;;;;4.38;1.83;;;19.90;46.50;;;;;;5093512;28;20024;-62
2021/05/30 10:41:17;;;;;;;4.03;2.08;;;19.90;46.50;;;;;;5093520;28;20375;-62
2021/05/30 10:43:44;;;;;;;4.82;2.17;;;19.90;46.50;;;;;;5092161;28;20020;-62
2021/05/30 10:46:11;;;;;;;3.13;1.85;;;19.90;46.40;;;;;;5093146;28;20025;-62
2021/05/30 10:48:38;;;;;;;4.50;2.15;;;19.90;46.40;;;;;;5093026;28;20028;-62
2021/05/30 10:51:22;;;;;;;3.65;1.83;;;19.90;46.40;;;;;;5092831;28;20044;-62
2021/05/30 10:53:50;;;;;;;5.30;1.95;;;19.90;46.40;;;;;;5092951;28;20024;-62
2021/05/30 10:56:37;;;;;;;4.18;2.08;;;20.00;46.40;;;;;;5092623;28;20471;-63
2021/05/30 10:59:03;;;;;;;4.43;1.90;;;20.00;46.30;;;;;;5093176;28;20024;-62
2021/05/30 11:01:34;;;;;;;2.75;1.75;;;20.00;46.30;;;;;;5092590;28;20369;-62
2021/05/30 11:04:25;;;;;;;3.45;1.90;;;20.00;46.20;;;;;;5092972;28;20074;-61
2021/05/30 11:06:57;;;;;;;3.80;1.90;;;20.00;46.20;;;;;;5093630;28;20114;-62
2021/05/30 11:09:24;;;;;;;4.28;2.03;;;20.00;46.20;;;;;;5094709;28;20020;-62
2021/05/30 11:12:28;;;;;;;4.65;2.17;;;20.00;46.10;;;;;;5096064;28;20036;-62
2021/05/30 11:15:12;;;;;;;3.85;1.80;;;20.00;46.10;;;;;;5096097;28;20410;-62
2021/05/30 11:17:49;;;;;;;4.03;2.00;;;20.10;46.00;;;;;;5096291;28;20490;-62
2021/05/30 11:20:19;;;;;;;3.72;2.13;;;20.10;46.10;;;;;;5096233;28;20059;-62
2021/05/30 11:22:56;;;;;;;4.68;2.25;;;20.10;46.00;;;;;;5095922;28;20036;-62
2021/05/30 11:25:48;;;;;;;4.25;2.05;;;20.10;46.00;;;;;;5095800;28;20032;-62
2021/05/30 11:28:34;;;;;;;3.50;1.75;;;20.20;46.00;;;;;;5087704;28;20032;-61
2021/05/30 11:31:07;;;;;;;3.17;1.77;;;20.20;45.90;;;;;;5095269;28;20122;-62
2021/05/30 11:33:45;;;;;;;3.77;1.90;;;20.20;45.90;;;;;;5096149;28;20024;-62
2021/05/30 11:36:19;;;;;;;3.25;1.58;;;20.30;45.80;;;;;;5095799;28;20024;-62
2021/05/30 11:38:54;;;;;;;3.20;1.90;;;20.30;45.80;;;;;;5095851;28;20024;-62
2021/05/30 11:41:26;;;;;;;2.95;1.80;;;20.40;45.80;;;;;;5095643;28;20476;-62
2021/05/30 11:44:20;;;;;;;3.30;1.85;;;20.40;45.70;;;;;;5095685;28;20020;-62
2021/05/30 11:46:57;;;;;;;3.30;1.90;;;20.40;45.70;;;;;;5093331;28;20040;-62
2021/05/30 11:49:25;;;;;;;3.35;1.77;;;20.50;45.60;;;;;;5096112;28;20020;-62
2021/05/30 11:52:02;;;;;;;3.55;1.90;;;20.50;45.60;;;;;;5096869;28;20068;-63
2021/05/30 11:54:29;;;;;;;3.60;1.52;;;20.50;45.50;;;;;;5100325;28;20109;-62
2021/05/30 11:56:57;;;;;;;3.30;1.52;;;20.50;45.50;;;;;;5105536;28;20024;-63
2021/05/30 11:59:39;;;;;;;3.75;1.77;;;20.50;45.50;;;;;;5105519;28;20031;-62
2021/05/30 12:02:05;;;;;;;3.67;1.85;;;20.60;45.40;;;;;;5104830;28;20095;-65
2021/05/30 12:04:39;;;;;;;3.35;1.70;;;20.60;45.30;;;;;;5105997;28;20020;-66
2021/05/30 12:07:09;;;;;;;3.28;1.80;;;20.70;45.30;;;;;;5103411;28;20074;-63
2021/05/30 12:09:48;;;;;;;2.78;1.70;;;20.70;45.30;;;;;;5104271;28;20085;-62
2021/05/30 12:12:47;;;;;;;2.83;1.45;;;20.80;45.20;;;;;;5103684;28;20040;-62
2021/05/30 12:15:12;;;;;;;3.10;1.73;;;20.90;45.10;;;;;;5094784;28;20112;-62
2021/05/30 12:17:44;;;;;;;3.65;1.70;;;20.90;45.00;;;;;;5095083;28;20061;-62
2021/05/30 12:20:19;;;;;;;3.72;1.98;;;20.90;45.00;;;;;;5094612;28;20387;-62
2021/05/30 12:22:45;;;;;;;4.15;2.05;;;20.90;44.90;;;;;;5094905;28;20048;-61
2021/05/30 12:25:11;;;;;;;2.97;1.50;;;21.00;44.90;;;;;;5094953;28;20035;-62
2021/05/30 12:27:37;;;;;;;2.63;1.65;;;21.00;44.80;;;;;;5095237;28;20045;-63
2021/05/30 12:30:03;;;;;;;4.82;1.77;;;21.10;44.80;;;;;;5095055;28;20114;-63
2021/05/30 12:32:29;;;;;;;3.03;1.67;;;21.10;44.70;;;;;;5094456;28;20101;-62
2021/05/30 12:34:55;;;;;;;2.85;1.60;;;21.20;44.60;;;;;;5095056;28;20051;-61
2021/05/30 12:37:38;;;;;;;3.00;1.70;;;21.20;44.50;;;;;;5094564;28;20523;-61
2021/05/30 12:40:04;;;;;;;3.33;1.67;;;21.30;44.40;;;;;;5094234;28;20024;-61
2021/05/30 12:42:30;;;;;;;2.67;1.42;;;21.30;44.30;;;;;;5094448;28;20122;-61
2021/05/30 12:44:57;;;;;;;2.58;1.40;;;21.40;44.30;;;;;;5094152;28;20083;-61
2021/05/30 12:47:31;;;;;;;2.97;1.42;;;21.50;44.10;;;;;;5094402;28;20053;-62
2021/05/30 12:49:59;;;;;;;3.67;1.73;;;21.50;44.00;;;;;;5094172;28;20047;-61
2021/05/30 12:52:25;;;;;;;2.80;1.58;;;21.50;44.00;;;;;;5094380;28;20071;-61
2021/05/30 12:55:06;;;;;;;4.88;1.60;;;21.60;44.00;;;;;;5094178;28;20024;-61